createdAt,value
2018-11-02T00:01:01.006Z,-1.33
2018-11-02T00:03:28.722Z,-1.31
2018-11-02T00:05:56.446Z,-1.28
2018-11-02T00:08:24.222Z,-1.21
2018-11-02T00:10:51.930Z,-1.18
2018-11-02T00:13:19.685Z,-1.14
2018-11-02T00:15:47.417Z,-1.10
2018-11-02T00:18:15.118Z,-1.06
2018-11-02T00:20:43.102Z,-1.03
2018-11-02T00:23:10.798Z,-0.98
2018-11-02T00:25:38.561Z,-0.96
2018-11-02T00:28:06.616Z,-0.93
2018-11-02T00:30:34.326Z,-0.91
2018-11-02T00:33:02.022Z,-0.88
2018-11-02T00:35:29.785Z,-0.84
2018-11-02T00:37:57.443Z,-0.80
2018-11-02T00:40:25.228Z,-0.77
2018-11-02T00:42:52.937Z,-0.74
2018-11-02T00:45:20.665Z,-0.71
2018-11-02T00:47:48.536Z,-0.68
2018-11-02T00:50:16.254Z,-0.65
2018-11-02T00:52:43.950Z,-0.66
2018-11-02T00:55:11.706Z,-0.63
2018-11-02T00:57:39.447Z,-0.60
2018-11-02T01:00:09.762Z,-0.59
2018-11-02T01:02:37.558Z,-0.56
2018-11-02T01:05:06.052Z,-0.53
2018-11-02T01:07:33.825Z,-0.50
2018-11-02T01:10:01.533Z,-0.48
2018-11-02T01:12:29.261Z,-0.50
2018-11-02T01:14:56.978Z,-0.50
2018-11-02T01:17:24.695Z,-0.47
2018-11-02T01:19:52.393Z,-0.46
2018-11-02T01:22:20.129Z,-0.46
2018-11-02T01:24:47.829Z,-0.46
2018-11-02T01:27:15.562Z,-0.46
2018-11-02T01:29:43.332Z,-0.46
2018-11-02T01:32:11.079Z,-0.43
2018-11-02T01:34:38.798Z,-0.41
2018-11-02T01:37:06.925Z,-0.38
2018-11-02T01:39:34.675Z,-0.35
2018-11-02T01:42:02.380Z,-0.33
2018-11-02T01:44:30.118Z,-0.33
2018-11-02T01:46:57.901Z,-0.30
2018-11-02T01:49:25.589Z,-0.29
2018-11-02T01:51:53.334Z,-0.26
2018-11-02T01:54:21.058Z,-0.24
2018-11-02T01:56:48.787Z,-0.22
2018-11-02T01:59:16.489Z,-0.20
2018-11-02T02:01:44.243Z,-0.18
2018-11-02T02:04:11.977Z,-0.15
2018-11-02T02:06:39.694Z,-0.13
2018-11-02T02:09:09.292Z,-0.12
2018-11-02T02:11:37.024Z,-0.10
2018-11-02T02:14:05.153Z,-0.06
2018-11-02T02:16:32.960Z,-0.06
2018-11-02T02:19:00.685Z,-0.03
2018-11-02T02:21:28.392Z,-0.02
2018-11-02T02:23:56.113Z,-0.02
2018-11-02T02:26:23.865Z,-0.01
2018-11-02T02:28:51.566Z,0.00
2018-11-02T02:31:19.397Z,0.03
2018-11-02T02:33:47.125Z,0.06
2018-11-02T02:36:14.865Z,0.07
2018-11-02T02:38:42.622Z,0.07
2018-11-02T02:41:10.352Z,0.09
2018-11-02T02:43:38.054Z,0.10
2018-11-02T02:46:06.003Z,0.11
2018-11-02T02:48:33.998Z,0.12
2018-11-02T02:51:01.736Z,0.12
2018-11-02T02:53:29.430Z,0.15
2018-11-02T02:55:57.167Z,0.11
2018-11-02T02:58:24.933Z,0.13
2018-11-02T03:00:52.682Z,0.15
2018-11-02T03:03:20.356Z,0.16
2018-11-02T03:05:48.078Z,0.17
2018-11-02T03:08:15.843Z,0.18
2018-11-02T03:10:43.621Z,0.18
2018-11-02T03:13:11.333Z,0.17
2018-11-02T03:15:39.042Z,0.19
2018-11-02T03:18:06.756Z,0.20
2018-11-02T03:20:34.479Z,0.22
2018-11-02T03:23:02.245Z,0.24
2018-11-02T03:25:30.074Z,0.24
2018-11-02T03:27:57.771Z,0.23
2018-11-02T03:30:25.495Z,0.24
2018-11-02T03:32:53.240Z,0.25
2018-11-02T03:35:20.934Z,0.23
2018-11-02T03:37:48.650Z,0.25
2018-11-02T03:40:16.405Z,0.26
2018-11-02T03:42:44.106Z,0.28
2018-11-02T03:45:11.874Z,0.29
2018-11-02T03:47:39.585Z,0.28
2018-11-02T03:50:08.211Z,0.27
2018-11-02T03:52:35.952Z,0.29
2018-11-02T03:55:04.069Z,0.30
2018-11-02T03:57:31.905Z,0.30
2018-11-02T03:59:59.647Z,0.31
2018-11-02T04:02:27.342Z,0.31
2018-11-02T04:04:55.055Z,0.31
2018-11-02T04:07:22.822Z,0.31
2018-11-02T04:09:50.526Z,0.30
2018-11-02T04:12:18.219Z,0.32
2018-11-02T04:14:45.937Z,0.32
2018-11-02T04:17:13.669Z,0.31
2018-11-02T04:19:41.413Z,0.31
2018-11-02T04:22:09.090Z,0.34
2018-11-02T04:24:36.830Z,0.32
2018-11-02T04:27:04.613Z,0.34
2018-11-02T04:29:32.468Z,0.34
2018-11-02T04:32:00.167Z,0.35
2018-11-02T04:34:27.861Z,0.39
2018-11-02T04:36:55.566Z,0.39
2018-11-02T04:39:23.286Z,0.39
2018-11-02T04:41:51.108Z,0.39
2018-11-02T04:44:18.793Z,0.40
2018-11-02T04:46:46.470Z,0.39
2018-11-02T04:49:14.171Z,0.39
2018-11-02T04:51:41.880Z,0.38
2018-11-02T04:54:09.587Z,0.40
2018-11-02T04:56:37.347Z,0.40
2018-11-02T04:59:05.207Z,0.40
2018-11-02T05:01:32.913Z,0.42
2018-11-02T05:04:00.696Z,0.42
2018-11-02T05:06:28.419Z,0.40
2018-11-02T05:08:56.158Z,0.41
2018-11-02T05:11:24.039Z,0.42
2018-11-02T05:13:51.742Z,0.43
2018-11-02T05:16:19.479Z,0.43
2018-11-02T05:18:47.234Z,0.44
2018-11-02T05:21:15.150Z,0.46
2018-11-02T05:23:42.705Z,0.48
2018-11-02T05:26:10.415Z,0.50
2018-11-02T05:28:38.182Z,0.51
2018-11-02T05:31:06.102Z,0.52
2018-11-02T05:33:33.910Z,0.55
2018-11-02T05:36:01.630Z,0.55
2018-11-02T05:38:29.322Z,0.57
2018-11-02T05:40:57.058Z,0.58
2018-11-02T05:43:24.802Z,0.68
2018-11-02T05:45:52.530Z,0.88
2018-11-02T05:48:20.251Z,1.11
2018-11-02T05:50:47.993Z,1.31
2018-11-02T05:53:15.709Z,1.41
2018-11-02T05:55:43.416Z,1.49
2018-11-02T05:58:11.186Z,1.54
2018-11-02T06:00:38.934Z,1.60
2018-11-02T06:03:06.677Z,1.60
2018-11-02T06:05:34.423Z,1.58
2018-11-02T06:08:02.373Z,1.51
2018-11-02T06:10:30.029Z,1.54
2018-11-02T06:12:57.803Z,1.63
2018-11-02T06:15:25.518Z,1.68
2018-11-02T06:17:53.220Z,1.73
2018-11-02T06:20:20.959Z,1.74
2018-11-02T06:22:48.650Z,1.72
2018-11-02T06:25:16.397Z,1.72
2018-11-02T06:27:44.091Z,1.84
2018-11-02T06:30:11.868Z,1.94
2018-11-02T06:32:39.630Z,1.96
2018-11-02T06:35:08.318Z,2.01
2018-11-02T06:37:36.065Z,2.04
2018-11-02T06:40:03.863Z,2.11
2018-11-02T06:42:31.618Z,2.15
2018-11-02T06:44:59.419Z,2.20
2018-11-02T06:47:27.115Z,2.20
2018-11-02T06:49:54.847Z,2.20
2018-11-02T06:52:22.621Z,2.17
2018-11-02T06:54:50.299Z,2.21
2018-11-02T06:57:18.027Z,2.22
2018-11-02T06:59:46.088Z,2.27
2018-11-02T07:02:13.618Z,2.33
2018-11-02T07:04:41.389Z,2.36
2018-11-02T07:07:09.320Z,2.36
2018-11-02T07:09:37.197Z,2.40
2018-11-02T07:12:05.310Z,2.42
2018-11-02T07:14:33.085Z,2.43
2018-11-02T07:17:00.804Z,2.45
2018-11-02T07:19:28.693Z,2.45
2018-11-02T07:21:56.603Z,2.45
2018-11-02T07:24:24.489Z,2.46
2018-11-02T07:26:52.354Z,2.46
2018-11-02T07:29:20.233Z,2.45
2018-11-02T07:31:48.133Z,2.45
2018-11-02T07:34:17.382Z,2.47
2018-11-02T07:36:45.238Z,2.47
2018-11-02T07:39:28.167Z,2.47
2018-11-02T07:41:56.086Z,2.48
2018-11-02T07:44:23.876Z,2.48
2018-11-02T07:46:51.759Z,2.49
2018-11-02T07:49:19.694Z,2.51
2018-11-02T07:51:47.602Z,2.53
2018-11-02T07:54:15.462Z,2.53
2018-11-02T07:56:43.364Z,2.55
2018-11-02T07:59:11.291Z,2.55
2018-11-02T08:01:39.251Z,2.56
2018-11-02T08:04:07.150Z,2.58
2018-11-02T08:06:35.067Z,2.59
2018-11-02T08:09:04.038Z,2.58
2018-11-02T08:11:31.940Z,2.58
2018-11-02T08:13:59.837Z,2.62
2018-11-02T08:16:27.723Z,2.62
2018-11-02T08:18:55.670Z,2.64
2018-11-02T08:21:23.565Z,2.62
2018-11-02T08:23:51.394Z,2.65
2018-11-02T08:26:19.249Z,2.65
2018-11-02T08:28:47.126Z,2.67
2018-11-02T08:31:15.001Z,2.70
2018-11-02T08:33:42.869Z,2.70
2018-11-02T08:36:10.771Z,2.72
2018-11-02T08:38:38.614Z,2.74
2018-11-02T08:41:06.482Z,2.76
2018-11-02T08:43:34.362Z,2.78
2018-11-02T08:46:02.235Z,2.80
2018-11-02T08:48:30.086Z,2.81
2018-11-02T08:50:58.002Z,2.82
2018-11-02T08:53:25.858Z,2.84
2018-11-02T08:55:53.725Z,2.85
2018-11-02T08:58:21.841Z,2.87
2018-11-02T09:00:49.540Z,2.87
2018-11-02T09:03:17.398Z,2.86
2018-11-02T09:05:45.302Z,2.85
2018-11-02T09:08:13.122Z,2.88
2018-11-02T09:10:42.572Z,2.88
2018-11-02T09:13:10.312Z,2.85
2018-11-02T09:15:37.990Z,2.86
2018-11-02T09:18:05.763Z,2.86
2018-11-02T09:20:33.449Z,2.86
2018-11-02T09:23:01.180Z,2.88
2018-11-02T09:25:28.890Z,2.88
2018-11-02T09:27:56.614Z,2.90
2018-11-02T09:30:24.386Z,2.90
2018-11-02T09:32:52.149Z,2.90
2018-11-02T09:35:19.830Z,2.91
2018-11-02T09:37:47.518Z,2.93
2018-11-02T09:40:15.341Z,2.95
2018-11-02T09:42:43.094Z,2.94
2018-11-02T09:45:12.304Z,2.94
2018-11-02T09:47:40.193Z,2.95
2018-11-02T09:50:08.846Z,2.97
2018-11-02T09:52:37.338Z,2.98
2018-11-02T09:55:05.931Z,3.00
2018-11-02T09:57:33.747Z,3.02
2018-11-02T10:00:01.449Z,3.03
2018-11-02T10:02:29.211Z,3.05
2018-11-02T10:04:57.006Z,3.08
2018-11-02T10:07:24.743Z,3.09
2018-11-02T10:09:52.493Z,3.09
2018-11-02T10:12:20.245Z,3.10
2018-11-02T10:14:47.989Z,3.10
2018-11-02T10:17:16.010Z,3.10
2018-11-02T10:19:43.759Z,3.10
2018-11-02T10:22:11.568Z,3.11
2018-11-02T10:24:39.319Z,3.10
2018-11-02T10:27:07.561Z,3.11
2018-11-02T10:29:35.382Z,3.11
2018-11-02T10:32:03.161Z,3.11
2018-11-02T10:34:31.261Z,3.12
2018-11-02T10:36:59.137Z,3.13
2018-11-02T10:39:26.932Z,3.13
2018-11-02T10:41:56.894Z,3.12
2018-11-02T10:44:26.786Z,3.13
2018-11-02T10:46:54.562Z,3.12
2018-11-02T10:49:22.345Z,3.13
2018-11-02T10:51:50.038Z,3.13
2018-11-02T10:54:17.838Z,3.12
2018-11-02T10:56:45.674Z,3.12
2018-11-02T10:59:13.354Z,3.13
2018-11-02T11:01:50.736Z,3.15
2018-11-02T11:04:19.029Z,3.15
2018-11-02T11:06:46.893Z,3.15
2018-11-02T11:09:14.627Z,3.17
2018-11-02T11:11:42.537Z,3.17
2018-11-02T11:14:10.572Z,3.18
2018-11-02T11:16:38.422Z,3.17
2018-11-02T11:19:06.762Z,3.18
2018-11-02T11:21:34.560Z,3.19
2018-11-02T11:24:02.275Z,3.20
2018-11-02T11:26:29.997Z,3.20
2018-11-02T11:28:57.769Z,3.21
2018-11-02T11:31:25.531Z,3.22
2018-11-02T11:33:53.278Z,3.23
2018-11-02T11:36:21.076Z,3.25
2018-11-02T11:38:48.838Z,3.25
2018-11-02T11:41:16.619Z,3.26
2018-11-02T11:43:44.356Z,3.27
2018-11-02T11:46:12.105Z,3.26
2018-11-02T11:48:39.909Z,3.26
2018-11-02T11:51:07.576Z,3.26
2018-11-02T11:53:35.364Z,3.26
2018-11-02T11:56:03.186Z,3.28
2018-11-02T11:58:30.952Z,3.28
2018-11-02T12:00:58.702Z,3.30
2018-11-02T12:03:26.406Z,3.28
2018-11-02T12:05:54.158Z,3.30
2018-11-02T12:08:21.928Z,3.31
2018-11-02T12:10:49.702Z,3.33
2018-11-02T12:13:17.494Z,3.35
2018-11-02T12:15:45.333Z,3.36
2018-11-02T12:18:13.085Z,3.38
2018-11-02T12:20:40.887Z,3.38
2018-11-02T12:23:08.606Z,3.39
2018-11-02T12:25:36.333Z,3.42
2018-11-02T12:28:04.462Z,3.42
2018-11-02T12:30:32.270Z,3.42
2018-11-02T12:33:00.678Z,3.44
2018-11-02T12:35:35.257Z,3.45
2018-11-02T12:38:03.010Z,3.46
2018-11-02T12:40:30.764Z,3.46
2018-11-02T12:42:58.480Z,3.48
2018-11-02T12:45:26.187Z,3.51
2018-11-02T12:47:53.970Z,3.50
2018-11-02T12:50:24.206Z,3.52
2018-11-02T12:52:53.037Z,3.53
2018-11-02T12:55:21.355Z,3.54
2018-11-02T12:57:49.062Z,3.54
2018-11-02T13:00:18.191Z,3.58
2018-11-02T13:02:46.547Z,3.59
2018-11-02T13:05:14.394Z,3.61
2018-11-02T13:07:42.185Z,3.61
2018-11-02T13:10:11.390Z,3.61
2018-11-02T13:12:39.175Z,3.62
2018-11-02T13:15:08.578Z,3.61
2018-11-02T13:17:36.439Z,3.62
2018-11-02T13:20:04.658Z,3.64
2018-11-02T13:22:32.333Z,3.65
2018-11-02T13:25:00.092Z,3.65
2018-11-02T13:27:27.877Z,3.67
2018-11-02T13:29:55.752Z,3.68
2018-11-02T13:32:23.657Z,3.68
2018-11-02T13:34:51.466Z,3.68
2018-11-02T13:37:19.279Z,3.70
2018-11-02T13:39:47.023Z,3.72
2018-11-02T13:42:14.821Z,3.72
2018-11-02T13:44:42.503Z,3.72
2018-11-02T13:47:11.163Z,3.73
2018-11-02T13:49:39.040Z,3.74
2018-11-02T13:52:07.994Z,3.73
2018-11-02T13:54:35.686Z,3.74
2018-11-02T13:57:03.396Z,3.74
2018-11-02T13:59:31.090Z,3.74
2018-11-02T14:01:58.853Z,3.76
2018-11-02T14:04:26.645Z,3.75
2018-11-02T14:06:54.401Z,3.77
2018-11-02T14:09:22.298Z,3.79
2018-11-02T14:11:50.107Z,3.81
2018-11-02T14:14:17.846Z,3.83
2018-11-02T14:16:45.566Z,3.84
2018-11-02T14:19:13.314Z,3.85
2018-11-02T14:21:41.041Z,3.88
2018-11-02T14:24:08.747Z,3.89
2018-11-02T14:26:36.481Z,3.88
2018-11-02T14:29:04.171Z,3.91
2018-11-02T14:31:31.916Z,3.93
2018-11-02T14:33:59.628Z,3.95
2018-11-02T14:36:27.378Z,3.98
2018-11-02T14:38:55.135Z,3.98
2018-11-02T14:41:22.849Z,3.98
2018-11-02T14:43:50.526Z,4.00
2018-11-02T14:46:18.332Z,3.99
2018-11-02T14:48:46.082Z,4.00
2018-11-02T14:51:13.814Z,4.00
2018-11-02T14:53:41.674Z,4.01
2018-11-02T14:56:09.265Z,4.01
2018-11-02T14:58:37.010Z,4.00
2018-11-02T15:01:04.835Z,4.01
2018-11-02T15:03:32.581Z,3.99
2018-11-02T15:06:00.321Z,4.00
2018-11-02T15:08:28.016Z,4.01
2018-11-02T15:10:55.826Z,4.03
2018-11-02T15:13:23.565Z,4.02
2018-11-02T15:15:51.283Z,4.03
2018-11-02T15:18:18.986Z,4.00
2018-11-02T15:20:46.714Z,4.02
2018-11-02T15:23:14.461Z,4.03
2018-11-02T15:25:42.160Z,4.07
2018-11-02T15:28:10.019Z,4.08
2018-11-02T15:30:37.738Z,4.10
2018-11-02T15:33:06.630Z,4.10
2018-11-02T15:35:34.429Z,4.11
2018-11-02T15:38:02.169Z,4.13
2018-11-02T15:40:29.973Z,4.13
2018-11-02T15:42:57.714Z,4.15
2018-11-02T15:45:25.431Z,4.17
2018-11-02T15:47:53.182Z,4.20
2018-11-02T15:50:20.876Z,4.18
2018-11-02T15:52:48.599Z,4.20
2018-11-02T15:55:16.334Z,4.21
2018-11-02T15:57:44.071Z,4.23
2018-11-02T16:00:18.581Z,4.24
2018-11-02T16:02:47.887Z,4.26
2018-11-02T16:05:15.583Z,4.26
2018-11-02T16:07:43.362Z,4.27
2018-11-02T16:10:11.812Z,4.28
2018-11-02T16:12:39.999Z,4.29
2018-11-02T16:15:08.501Z,4.29
2018-11-02T16:17:36.642Z,4.30
2018-11-02T16:20:05.454Z,4.30
2018-11-02T16:22:33.172Z,4.30
2018-11-02T16:25:00.899Z,4.31
2018-11-02T16:27:28.622Z,4.30
2018-11-02T16:29:56.440Z,4.27
2018-11-02T16:32:24.182Z,4.20
2018-11-02T16:34:51.888Z,4.19
2018-11-02T16:37:19.689Z,4.18
2018-11-02T16:39:47.407Z,4.18
2018-11-02T16:42:15.147Z,4.21
2018-11-02T16:44:42.981Z,4.23
2018-11-02T16:47:10.683Z,4.25
2018-11-02T16:49:38.438Z,4.28
2018-11-02T16:52:06.362Z,4.31
2018-11-02T16:54:34.185Z,4.32
2018-11-02T16:57:01.982Z,4.35
2018-11-02T16:59:29.730Z,4.40
2018-11-02T17:01:57.489Z,4.43
2018-11-02T17:04:25.245Z,4.45
2018-11-02T17:06:53.165Z,4.48
2018-11-02T17:09:20.979Z,4.53
2018-11-02T17:11:48.705Z,4.54
2018-11-02T17:14:16.451Z,4.57
2018-11-02T17:16:44.178Z,4.57
2018-11-02T17:19:11.905Z,4.60
2018-11-02T17:21:40.308Z,4.63
2018-11-02T17:24:08.030Z,4.65
2018-11-02T17:26:35.734Z,4.66
2018-11-02T17:29:03.606Z,4.68
2018-11-02T17:31:31.318Z,4.76
2018-11-02T17:33:59.003Z,4.82
2018-11-02T17:36:26.807Z,4.83
2018-11-02T17:38:54.493Z,4.83
2018-11-02T17:41:22.246Z,4.85
2018-11-02T17:43:50.021Z,4.87
2018-11-02T17:46:17.759Z,4.89
2018-11-02T17:48:45.497Z,4.90
2018-11-02T17:51:13.218Z,4.91
2018-11-02T17:53:41.180Z,4.91
2018-11-02T17:56:08.899Z,4.92
2018-11-02T17:58:36.674Z,4.94
2018-11-02T18:01:04.457Z,4.97
2018-11-02T18:03:32.171Z,4.98
2018-11-02T18:05:59.975Z,4.98
2018-11-02T18:08:27.979Z,4.98
2018-11-02T18:10:55.642Z,4.98
2018-11-02T18:13:23.384Z,4.99
2018-11-02T18:15:51.168Z,5.01
2018-11-02T18:18:18.846Z,5.01
2018-11-02T18:20:46.585Z,5.02
2018-11-02T18:23:14.326Z,5.03
2018-11-02T18:25:42.063Z,5.05
2018-11-02T18:28:09.748Z,5.03
2018-11-02T18:30:37.473Z,5.02
2018-11-02T18:33:05.186Z,5.04
2018-11-02T18:35:33.011Z,5.04
2018-11-02T18:38:00.637Z,5.05
2018-11-02T18:40:28.375Z,5.10
2018-11-02T18:42:56.152Z,5.11
2018-11-02T18:45:24.125Z,5.08
2018-11-02T18:47:51.851Z,5.02
2018-11-02T18:50:20.794Z,4.98
2018-11-02T18:52:49.067Z,4.97
2018-11-02T18:55:17.133Z,4.92
2018-11-02T18:57:44.900Z,4.92
2018-11-02T19:00:12.864Z,4.97
2018-11-02T19:02:40.861Z,4.93
2018-11-02T19:05:10.647Z,4.88
2018-11-02T19:07:38.520Z,4.86
2018-11-02T19:10:06.737Z,4.81
2018-11-02T19:12:34.466Z,4.79
2018-11-02T19:15:02.215Z,4.79
2018-11-02T19:17:29.920Z,4.76
2018-11-02T19:19:57.701Z,4.76
2018-11-02T19:22:25.450Z,4.73
2018-11-02T19:24:53.154Z,4.72
2018-11-02T19:27:20.944Z,4.74
2018-11-02T19:29:48.635Z,4.76
2018-11-02T19:32:16.335Z,4.80
2018-11-02T19:34:44.279Z,4.84
2018-11-02T19:37:11.777Z,4.87
2018-11-02T19:39:39.503Z,4.91
2018-11-02T19:42:07.283Z,4.92
2018-11-02T19:44:35.137Z,4.95
2018-11-02T19:47:02.855Z,4.97
2018-11-02T19:49:30.583Z,4.97
2018-11-02T19:51:58.289Z,5.05
2018-11-02T19:54:25.982Z,5.05
2018-11-02T19:56:53.707Z,5.03
2018-11-02T19:59:21.427Z,4.99
2018-11-02T20:01:49.167Z,4.98
2018-11-02T20:04:16.911Z,4.94
2018-11-02T20:06:44.634Z,4.91
2018-11-02T20:09:13.370Z,4.91
2018-11-02T20:11:41.649Z,4.97
2018-11-02T20:14:09.405Z,5.03
2018-11-02T20:16:37.145Z,5.10
2018-11-02T20:19:05.411Z,5.09
2018-11-02T20:21:33.088Z,5.04
2018-11-02T20:24:00.813Z,4.95
2018-11-02T20:26:28.517Z,4.93
2018-11-02T20:28:56.235Z,4.90
2018-11-02T20:31:23.991Z,4.90
2018-11-02T20:33:51.722Z,4.94
2018-11-02T20:36:19.422Z,4.99
2018-11-02T20:38:47.194Z,5.06
2018-11-02T20:41:14.921Z,5.10
2018-11-02T20:43:42.631Z,5.14
2018-11-02T20:46:10.317Z,5.11
2018-11-02T20:48:38.117Z,5.08
2018-11-02T20:51:05.990Z,5.08
2018-11-02T20:53:33.727Z,5.11
2018-11-02T20:56:01.499Z,5.14
2018-11-02T20:58:29.209Z,5.15
2018-11-02T21:00:56.943Z,5.18
2018-11-02T21:03:24.799Z,5.23
2018-11-02T21:05:52.507Z,5.21
2018-11-02T21:08:20.275Z,5.25
2018-11-02T21:10:47.981Z,5.18
2018-11-02T21:13:15.697Z,5.11
2018-11-02T21:15:43.522Z,5.10
2018-11-02T21:18:11.219Z,5.09
2018-11-02T21:20:39.003Z,5.07
2018-11-02T21:23:06.752Z,5.06
2018-11-02T21:25:34.507Z,5.03
2018-11-02T21:28:02.210Z,5.00
2018-11-02T21:30:29.978Z,5.00
2018-11-02T21:32:57.666Z,4.98
2018-11-02T21:35:25.431Z,4.93
2018-11-02T21:37:53.227Z,4.89
2018-11-02T21:40:22.140Z,4.85
2018-11-02T21:42:49.877Z,4.82
2018-11-02T21:45:19.254Z,4.80
2018-11-02T21:47:47.107Z,4.80
2018-11-02T21:50:15.321Z,4.82
2018-11-02T21:52:43.140Z,4.79
2018-11-02T21:55:10.939Z,4.77
2018-11-02T21:57:38.886Z,4.76
2018-11-02T22:00:12.238Z,4.77
2018-11-02T22:02:40.245Z,4.76
2018-11-02T22:05:09.167Z,4.75
2018-11-02T22:07:36.963Z,4.72
2018-11-02T22:10:06.162Z,4.71
2018-11-02T22:12:33.906Z,4.71
2018-11-02T22:15:01.704Z,4.72
2018-11-02T22:17:29.410Z,4.69
2018-11-02T22:19:57.154Z,4.65
2018-11-02T22:22:24.954Z,4.67
2018-11-02T22:24:52.673Z,4.68
2018-11-02T22:27:20.435Z,4.68
2018-11-02T22:29:48.222Z,4.68
2018-11-02T22:32:15.932Z,4.70
2018-11-02T22:34:43.682Z,4.70
2018-11-02T22:39:34.045Z,4.72
2018-11-02T22:42:01.945Z,4.71
2018-11-02T22:44:29.601Z,4.72
2018-11-02T22:46:57.434Z,4.75
2018-11-02T22:49:25.177Z,4.77
2018-11-02T22:51:52.993Z,4.77
2018-11-02T22:54:20.726Z,4.78
2018-11-02T22:56:48.458Z,4.82
2018-11-02T22:59:16.233Z,4.81
2018-11-02T23:01:44.027Z,4.84
2018-11-02T23:04:11.810Z,4.85
2018-11-02T23:06:39.643Z,4.90
2018-11-02T23:09:08.720Z,4.93
2018-11-02T23:11:36.754Z,4.96
2018-11-02T23:14:05.189Z,4.99
2018-11-02T23:16:33.015Z,5.05
2018-11-02T23:19:00.919Z,5.07
2018-11-02T23:21:28.793Z,5.06
2018-11-02T23:23:56.796Z,5.07
2018-11-02T23:26:24.713Z,5.10
2018-11-02T23:28:52.611Z,5.11
2018-11-02T23:31:20.353Z,5.14
2018-11-02T23:33:48.060Z,5.15
2018-11-02T23:36:15.772Z,5.18
2018-11-02T23:38:43.534Z,5.19
2018-11-02T23:41:11.262Z,5.20
2018-11-02T23:43:38.943Z,5.20
2018-11-02T23:46:06.653Z,5.22
2018-11-02T23:48:34.354Z,5.25
2018-11-02T23:51:02.070Z,5.25
2018-11-02T23:53:29.798Z,5.26
2018-11-02T23:55:57.518Z,5.28
2018-11-02T23:58:25.276Z,5.31
